Aviation Digital Data Service (ADDS)

Output produced by METARs form (1216 UTC 25 September 2016)
found at http://aviationweather.gov/adds/metars/
 
KLCH 251153Z 07004KT 10SM CLR 23/23 A3001 RMK AO2 SLP168 70015 T02330228 10244 20233 53005